Princeton, Illinois
Current Conditions -  °F | °C
As of 9:55 AM on Sunday 23 Nov 2014 (Local Time) from KVYS Reporting Station
Overcast Overcast  
Wind Chill: 45°   Ceiling: 1700
Heat Index: 49°   Visibility: 10mi
Dew Point: 46°   Wind: 10mph
Humidity: 87%   Direction: 150°SSE
Pressure: 29.68"   Gusts: NA
Location:  41.37°N, 89.46°W
Report Text: KVYS 231555Z AUTO 15009KT 10SM BKN017 OVC085 10/08 A2968 RMK AO2 T00950075
Loading
Personal Weather Stations






























Interactive Weather Map New forecast layout! Learn more

10-Day Weather Forecast

Advertisements
Track Severe Weather on mobile